Time;durP1;ratioP1;P1;durP2;ratioP2;P2;SDS_P1;SDS_P2;PMS_P1;PMS_P2;Temp;Humidity;BMP_temperature;BMP_pressure;BME280_temperature;BME280_humidity;BME280_pressure;Samples;Min_cycle;Max_cycle;Signal;HPM_P1;HPM_P2
2022/09/27 00:01:38;;;;;;;4.88;1.17;;;10.40;99.90;;;;;;6179765;23;20017;-71
2022/09/27 00:04:03;;;;;;;7.40;1.63;;;10.40;99.90;;;;;;6204406;23;20027;-72
2022/09/27 00:06:30;;;;;;;11.20;1.10;;;10.40;99.90;;;;;;6203960;23;20021;-71
2022/09/27 00:08:57;;;;;;;7.25;0.90;;;10.40;99.90;;;;;;6207304;23;20013;-71
2022/09/27 00:11:32;;;;;;;8.68;1.05;;;10.40;99.90;;;;;;6202382;23;20529;-71
2022/09/27 00:13:58;;;;;;;5.28;0.98;;;10.40;99.90;;;;;;6205095;23;20227;-71
2022/09/27 00:16:29;;;;;;;5.22;0.80;;;10.40;99.90;;;;;;6176431;23;20029;-71
2022/09/27 00:19:00;;;;;;;4.38;1.02;;;10.40;99.90;;;;;;6178012;23;20017;-72
2022/09/27 00:21:26;;;;;;;6.50;1.00;;;10.40;99.90;;;;;;6207443;23;20059;-72
2022/09/27 00:23:51;;;;;;;6.65;1.35;;;10.40;99.90;;;;;;6204681;23;20054;-74
2022/09/27 00:26:17;;;;;;;7.63;0.77;;;10.40;99.90;;;;;;6208933;23;20356;-74
2022/09/27 00:28:43;;;;;;;4.15;0.77;;;10.40;99.90;;;;;;6204301;23;20175;-72
2022/09/27 00:31:21;;;;;;;1.45;0.50;;;10.40;99.90;;;;;;6204749;23;20012;-72
2022/09/27 00:33:48;;;;;;;5.30;0.70;;;10.50;99.90;;;;;;6208392;23;20017;-72
2022/09/27 00:36:15;;;;;;;4.65;0.98;;;10.50;99.90;;;;;;6177969;23;20570;-72
2022/09/27 00:38:40;;;;;;;4.40;0.82;;;10.50;99.90;;;;;;6204723;23;20025;-72
2022/09/27 00:41:08;;;;;;;6.95;0.85;;;10.50;99.90;;;;;;6206280;23;20498;-72
2022/09/27 00:44:04;;;;;;;1.85;0.60;;;10.50;99.90;;;;;;6205917;23;20091;-72
2022/09/27 00:46:45;;;;;;;1.95;0.30;;;10.40;99.90;;;;;;6172082;23;20561;-73
2022/09/27 00:49:41;;;;;;;5.70;0.77;;;10.40;99.90;;;;;;6204672;23;20024;-74
2022/09/27 00:52:19;;;;;;;1.38;0.43;;;10.40;99.90;;;;;;6178467;23;20267;-73
2022/09/27 00:54:49;;;;;;;3.58;0.70;;;10.40;99.90;;;;;;6207080;23;20452;-72
2022/09/27 00:57:15;;;;;;;2.15;0.50;;;10.40;99.90;;;;;;6205742;23;20031;-72
2022/09/27 00:59:52;;;;;;;1.52;0.60;;;10.30;99.90;;;;;;6208879;23;20057;-72
2022/09/27 01:02:18;;;;;;;3.35;0.63;;;10.30;99.90;;;;;;6206552;23;20421;-72
2022/09/27 01:04:46;;;;;;;5.20;0.70;;;10.30;99.90;;;;;;6208677;23;20025;-71
2022/09/27 01:07:12;;;;;;;4.85;1.00;;;10.30;99.90;;;;;;6201408;23;20552;-71
2022/09/27 01:09:38;;;;;;;3.60;0.75;;;10.30;99.90;;;;;;6205315;23;20040;-71
2022/09/27 01:12:06;;;;;;;8.00;1.10;;;10.30;99.90;;;;;;6206140;23;20028;-71
2022/09/27 01:14:50;;;;;;;4.00;0.70;;;10.30;99.90;;;;;;6207727;23;20070;-72
2022/09/27 01:17:21;;;;;;;5.93;0.80;;;10.30;99.90;;;;;;6205267;23;20056;-72
2022/09/27 01:19:59;;;;;;;4.93;1.00;;;10.30;99.90;;;;;;6206807;23;20028;-71
2022/09/27 01:22:28;;;;;;;5.85;2.13;;;10.40;99.90;;;;;;6206406;23;20461;-72
2022/09/27 01:25:16;;;;;;;2.20;0.75;;;10.40;99.90;;;;;;6206942;23;20012;-72
2022/09/27 01:28:03;;;;;;;3.40;0.70;;;10.40;99.90;;;;;;6180802;23;20443;-72
2022/09/27 01:30:54;;;;;;;2.30;0.63;;;10.40;99.90;;;;;;6178696;23;20461;-71
2022/09/27 01:33:50;;;;;;;7.40;0.95;;;10.30;99.90;;;;;;6199693;23;20492;-71
2022/09/27 01:36:45;;;;;;;5.13;0.85;;;10.30;99.90;;;;;;6179475;23;20044;-72
2022/09/27 01:39:43;;;;;;;6.25;0.90;;;10.30;99.90;;;;;;6180121;23;20457;-71
2022/09/27 01:42:18;;;;;;;3.03;0.80;;;10.30;99.90;;;;;;6206957;23;20016;-71
2022/09/27 01:44:59;;;;;;;6.68;0.82;;;10.30;99.90;;;;;;6204125;23;20091;-72
2022/09/27 01:47:36;;;;;;;6.78;1.05;;;10.30;99.90;;;;;;6205294;23;20017;-72
2022/09/27 01:50:09;;;;;;;4.05;0.80;;;10.30;99.90;;;;;;6178750;23;20214;-72
2022/09/27 01:52:50;;;;;;;10.95;1.20;;;10.30;99.90;;;;;;6179634;23;20043;-71
2022/09/27 01:55:19;;;;;;;6.30;1.20;;;10.20;99.90;;;;;;6204008;23;20027;-71
2022/09/27 01:57:54;;;;;;;2.00;0.63;;;10.30;99.90;;;;;;6207356;23;20095;-71
2022/09/27 02:00:20;;;;;;;6.97;0.93;;;10.30;99.90;;;;;;6178748;23;20016;-71
2022/09/27 02:02:54;;;;;;;5.40;1.00;;;10.20;99.90;;;;;;6181112;23;20091;-71
2022/09/27 02:05:25;;;;;;;5.30;1.13;;;10.20;99.90;;;;;;6205497;23;20051;-72
2022/09/27 02:08:00;;;;;;;5.55;0.70;;;10.10;99.90;;;;;;6206400;23;20013;-73
2022/09/27 02:10:36;;;;;;;4.53;0.85;;;10.10;99.90;;;;;;6207118;23;20642;-73
2022/09/27 02:13:20;;;;;;;4.47;0.90;;;10.00;99.90;;;;;;6177480;23;20024;-73
2022/09/27 02:16:19;;;;;;;3.95;0.50;;;10.00;99.90;;;;;;6205301;23;20361;-73
2022/09/27 02:19:04;;;;;;;2.40;0.55;;;10.00;99.90;;;;;;6202305;23;20208;-73
2022/09/27 02:21:54;;;;;;;4.53;0.63;;;10.00;99.90;;;;;;6205733;23;20369;-72
2022/09/27 02:24:28;;;;;;;3.55;0.60;;;9.90;99.90;;;;;;6179951;23;20024;-72
2022/09/27 02:27:16;;;;;;;3.10;0.68;;;9.90;99.90;;;;;;6207847;23;20198;-72
2022/09/27 02:29:52;;;;;;;4.82;0.63;;;9.90;99.90;;;;;;6206785;23;20020;-73
2022/09/27 02:32:18;;;;;;;5.60;0.88;;;9.90;99.90;;;;;;6179218;23;20111;-71
2022/09/27 02:34:45;;;;;;;4.90;0.80;;;9.90;99.90;;;;;;6203252;23;20107;-72
2022/09/27 02:37:12;;;;;;;3.80;0.70;;;9.90;99.90;;;;;;6207620;23;20012;-72
2022/09/27 02:39:37;;;;;;;3.35;0.60;;;9.90;99.90;;;;;;6207100;23;20346;-72
2022/09/27 02:42:04;;;;;;;5.47;1.02;;;9.90;99.90;;;;;;6176677;23;20400;-72
2022/09/27 02:44:30;;;;;;;6.40;0.75;;;9.90;99.90;;;;;;6207750;23;20115;-72
2022/09/27 02:47:07;;;;;;;7.35;0.95;;;9.90;99.90;;;;;;6202747;23;20358;-72
2022/09/27 02:49:48;;;;;;;1.90;0.75;;;9.90;99.90;;;;;;6201485;23;20024;-72
2022/09/27 02:52:31;;;;;;;9.73;0.98;;;9.90;99.90;;;;;;6205527;23;20032;-72
2022/09/27 02:55:20;;;;;;;10.77;1.23;;;9.90;99.90;;;;;;6150280;23;20456;-72
2022/09/27 02:57:54;;;;;;;4.47;1.00;;;9.90;99.90;;;;;;6178516;23;20017;-72
2022/09/27 03:00:23;;;;;;;4.93;1.02;;;9.90;99.90;;;;;;6203681;23;20494;-72
2022/09/27 03:03:11;;;;;;;3.67;0.98;;;9.90;99.90;;;;;;6178384;23;20070;-72
2022/09/27 03:05:53;;;;;;;4.75;1.33;;;9.90;99.90;;;;;;6178529;23;20104;-72
2022/09/27 03:08:19;;;;;;;4.45;1.08;;;9.80;99.90;;;;;;6204847;23;20495;-71
2022/09/27 03:10:45;;;;;;;5.63;0.90;;;9.80;99.90;;;;;;6202871;23;20097;-72
2022/09/27 03:13:11;;;;;;;2.72;0.52;;;9.80;99.90;;;;;;6205324;23;20166;-72
2022/09/27 03:15:37;;;;;;;3.50;0.77;;;9.80;99.90;;;;;;6204570;23;20105;-72
2022/09/27 03:18:03;;;;;;;3.75;0.55;;;9.80;99.90;;;;;;6203567;23;20103;-71
2022/09/27 03:20:30;;;;;;;2.50;0.40;;;9.80;99.90;;;;;;6206416;23;20013;-72
2022/09/27 03:22:55;;;;;;;5.45;0.77;;;9.70;99.90;;;;;;6206419;23;20455;-71
2022/09/27 03:25:21;;;;;;;7.30;0.98;;;9.80;99.90;;;;;;6206669;23;20032;-72
2022/09/27 03:27:47;;;;;;;3.83;0.93;;;9.80;99.90;;;;;;6206937;23;20461;-72
2022/09/27 03:30:13;;;;;;;2.85;0.77;;;9.80;99.90;;;;;;6203451;23;20465;-71
2022/09/27 03:32:43;;;;;;;9.32;1.10;;;9.80;99.90;;;;;;6180623;23;20027;-72
2022/09/27 03:35:10;;;;;;;4.85;1.00;;;9.70;99.90;;;;;;6174801;23;20099;-71
2022/09/27 03:37:35;;;;;;;3.72;1.10;;;9.80;99.90;;;;;;6176789;23;20040;-71
2022/09/27 03:40:01;;;;;;;8.40;1.40;;;9.80;99.90;;;;;;6205716;23;20023;-71
2022/09/27 03:42:27;;;;;;;7.32;0.90;;;9.80;99.90;;;;;;6206175;23;20737;-72
2022/09/27 03:44:52;;;;;;;11.82;1.02;;;9.90;99.90;;;;;;6173073;23;20340;-72
2022/09/27 03:47:18;;;;;;;7.40;1.10;;;9.90;99.90;;;;;;6206192;23;20021;-72
2022/09/27 03:49:44;;;;;;;3.80;1.00;;;9.90;99.90;;;;;;6206135;23;20016;-72
2022/09/27 03:52:09;;;;;;;10.55;1.20;;;9.90;99.90;;;;;;6200186;23;20078;-72
2022/09/27 03:54:35;;;;;;;9.73;1.15;;;9.90;99.90;;;;;;6206780;23;20107;-71
2022/09/27 03:57:01;;;;;;;7.47;1.10;;;10.00;99.90;;;;;;6204971;23;20175;-71
2022/09/27 03:59:26;;;;;;;4.53;0.80;;;10.00;99.90;;;;;;6206494;23;20020;-72
2022/09/27 04:01:52;;;;;;;5.45;0.93;;;9.90;99.90;;;;;;6207069;23;20073;-72
2022/09/27 04:04:18;;;;;;;4.95;1.00;;;10.00;99.90;;;;;;6178899;23;20091;-73
2022/09/27 04:06:43;;;;;;;4.75;0.80;;;10.00;99.90;;;;;;6205440;23;20036;-72
2022/09/27 04:09:09;;;;;;;3.30;0.63;;;10.00;99.90;;;;;;6206205;23;20369;-72
2022/09/27 04:11:34;;;;;;;5.47;1.02;;;9.90;99.90;;;;;;6207702;23;20452;-72
2022/09/27 04:14:00;;;;;;;4.30;0.90;;;9.90;99.90;;;;;;6206905;23;20021;-72
2022/09/27 04:16:26;;;;;;;3.90;0.90;;;9.90;99.90;;;;;;6178206;23;20020;-72
2022/09/27 04:18:52;;;;;;;5.25;0.95;;;9.90;99.90;;;;;;6179059;23;20147;-72
2022/09/27 04:21:19;;;;;;;6.10;0.88;;;9.90;99.90;;;;;;6203966;23;20021;-73
2022/09/27 04:23:45;;;;;;;4.75;0.90;;;9.90;99.90;;;;;;6180473;23;20040;-73
2022/09/27 04:26:12;;;;;;;3.22;0.80;;;9.90;99.90;;;;;;6178226;23;20083;-72
2022/09/27 04:28:38;;;;;;;5.13;0.85;;;9.90;99.90;;;;;;6207731;23;20021;-72
2022/09/27 04:31:03;;;;;;;8.35;1.30;;;9.80;99.90;;;;;;6205107;23;20021;-72
2022/09/27 04:33:29;;;;;;;7.07;1.20;;;9.80;99.90;;;;;;6206403;23;20055;-71
2022/09/27 04:38:39;;;;;;;4.82;1.33;;;9.80;99.90;;;;;;6205855;23;20013;-71
2022/09/27 04:41:06;;;;;;;8.65;1.50;;;9.70;99.90;;;;;;6207022;23;20031;-72
2022/09/27 04:43:32;;;;;;;8.88;1.13;;;9.60;99.90;;;;;;6180362;23;20491;-72
2022/09/27 04:45:57;;;;;;;3.92;1.13;;;9.70;99.90;;;;;;6204582;23;20009;-70
2022/09/27 04:48:23;;;;;;;6.47;1.10;;;9.60;99.90;;;;;;6203258;23;20012;-71
2022/09/27 04:50:57;;;;;;;4.90;0.93;;;9.60;99.90;;;;;;6205033;23;20043;-73
2022/09/27 04:53:22;;;;;;;7.28;1.00;;;9.50;99.90;;;;;;6202898;23;20096;-71
2022/09/27 04:55:48;;;;;;;4.80;0.95;;;9.50;99.90;;;;;;6205446;23;20040;-72
2022/09/27 04:58:14;;;;;;;8.57;1.23;;;9.50;99.90;;;;;;6205733;23;20035;-73
2022/09/27 05:00:44;;;;;;;6.38;1.13;;;9.40;99.90;;;;;;6204764;23;20040;-71
2022/09/27 05:03:10;;;;;;;7.82;1.20;;;9.40;99.90;;;;;;6206830;23;20028;-71
2022/09/27 05:05:35;;;;;;;8.85;1.50;;;9.40;99.90;;;;;;6205591;23;20151;-71
2022/09/27 05:08:01;;;;;;;4.63;0.70;;;9.40;99.90;;;;;;6203607;23;20032;-73
2022/09/27 05:10:27;;;;;;;7.60;0.75;;;9.40;99.90;;;;;;6204259;23;20100;-72
2022/09/27 05:12:52;;;;;;;6.13;1.02;;;9.40;99.90;;;;;;6207755;23;20484;-74
2022/09/27 05:15:18;;;;;;;5.80;0.70;;;9.40;99.90;;;;;;6205149;23;20432;-73
2022/09/27 05:17:44;;;;;;;5.13;1.05;;;9.50;99.90;;;;;;6209397;23;20021;-73
2022/09/27 05:20:10;;;;;;;4.10;0.93;;;9.50;99.90;;;;;;6209659;23;20012;-71
2022/09/27 05:22:37;;;;;;;4.90;1.10;;;9.50;99.90;;;;;;6179746;23;20540;-71
2022/09/27 05:25:03;;;;;;;4.65;0.85;;;9.50;99.90;;;;;;6180723;23;20091;-70
2022/09/27 05:27:29;;;;;;;5.45;1.10;;;9.50;99.90;;;;;;6181191;23;20104;-69
2022/09/27 05:29:55;;;;;;;7.00;1.10;;;9.50;99.90;;;;;;6205796;23;20273;-69
2022/09/27 05:32:22;;;;;;;5.53;1.20;;;9.50;99.90;;;;;;6206321;23;20028;-68
2022/09/27 05:34:48;;;;;;;8.85;1.30;;;9.50;99.90;;;;;;6208124;23;20013;-67
2022/09/27 05:37:13;;;;;;;5.50;1.15;;;9.50;99.90;;;;;;6205629;23;20017;-68
2022/09/27 05:39:39;;;;;;;10.23;1.45;;;9.60;99.90;;;;;;6206169;23;20077;-69
2022/09/27 05:42:07;;;;;;;4.28;0.98;;;9.50;99.90;;;;;;6207364;23;20028;-68
2022/09/27 05:44:34;;;;;;;4.75;1.00;;;9.50;99.90;;;;;;6207352;23;20472;-74
2022/09/27 05:47:04;;;;;;;9.63;1.13;;;9.40;99.90;;;;;;6206250;23;20075;-69
2022/09/27 05:49:30;;;;;;;4.57;1.00;;;9.40;99.90;;;;;;6205368;23;20090;-71
2022/09/27 05:51:56;;;;;;;3.55;0.95;;;9.40;99.90;;;;;;6180346;23;20028;-72
2022/09/27 05:54:22;;;;;;;6.72;0.80;;;9.40;99.90;;;;;;6206819;23;20058;-73
2022/09/27 05:56:47;;;;;;;8.70;1.08;;;9.40;99.90;;;;;;6207916;23;20087;-73
2022/09/27 05:59:13;;;;;;;3.10;1.25;;;9.40;99.90;;;;;;6178460;23;20013;-73
2022/09/27 06:01:39;;;;;;;6.35;1.00;;;9.30;99.90;;;;;;6208098;23;20020;-73
2022/09/27 06:04:04;;;;;;;5.72;1.63;;;9.30;99.90;;;;;;6207176;23;20018;-72
2022/09/27 06:06:33;;;;;;;6.53;1.10;;;9.30;99.90;;;;;;6208034;23;20032;-71
2022/09/27 06:08:59;;;;;;;4.65;1.15;;;9.30;99.90;;;;;;6182659;23;20020;-73
2022/09/27 06:11:26;;;;;;;4.80;1.00;;;9.30;99.90;;;;;;6202079;23;20028;-73
2022/09/27 06:13:52;;;;;;;3.78;0.82;;;9.30;99.90;;;;;;6205296;23;20190;-73
2022/09/27 06:16:17;;;;;;;6.20;1.25;;;9.30;99.90;;;;;;6202405;23;20349;-74
2022/09/27 06:18:43;;;;;;;8.73;1.10;;;9.40;99.90;;;;;;6207071;23;20323;-74
2022/09/27 06:21:09;;;;;;;3.53;0.82;;;9.40;99.90;;;;;;6205332;23;20467;-73
2022/09/27 06:23:35;;;;;;;6.25;1.60;;;9.50;99.90;;;;;;6209548;23;20306;-74
2022/09/27 06:26:03;;;;;;;5.55;0.88;;;9.40;99.90;;;;;;6208082;23;20352;-73
2022/09/27 06:28:29;;;;;;;10.70;1.50;;;9.50;99.90;;;;;;6206990;23;20092;-73
2022/09/27 06:30:56;;;;;;;5.70;1.13;;;9.60;99.90;;;;;;6206414;23;20012;-73
2022/09/27 06:33:21;;;;;;;5.32;1.10;;;9.60;99.90;;;;;;6207347;23;20032;-73
2022/09/27 06:35:48;;;;;;;5.32;1.00;;;9.60;99.90;;;;;;6180142;23;20063;-73
2022/09/27 06:38:18;;;;;;;6.55;1.10;;;9.60;99.90;;;;;;6181222;23;20025;-73
2022/09/27 06:40:44;;;;;;;7.20;0.80;;;9.70;99.90;;;;;;6205235;23;20445;-73
2022/09/27 06:43:13;;;;;;;6.45;1.05;;;9.70;99.90;;;;;;6206287;23;20080;-73
2022/09/27 06:45:39;;;;;;;7.97;1.38;;;9.80;99.90;;;;;;6207985;23;20016;-75
2022/09/27 06:48:06;;;;;;;5.40;1.05;;;9.90;99.90;;;;;;6204985;23;20448;-73
2022/09/27 06:50:34;;;;;;;6.57;1.70;;;9.90;99.90;;;;;;6178629;23;20013;-72
2022/09/27 06:53:02;;;;;;;7.43;1.00;;;10.00;99.90;;;;;;6182510;23;20027;-72
2022/09/27 06:55:28;;;;;;;6.32;1.00;;;10.00;99.90;;;;;;6202690;23;20016;-73
2022/09/27 07:00:39;;;;;;;6.30;1.20;;;10.10;99.90;;;;;;6178208;23;20009;-73
2022/09/27 07:03:04;;;;;;;5.78;0.90;;;10.10;99.90;;;;;;6206748;23;20023;-72
2022/09/27 07:05:30;;;;;;;6.50;1.10;;;10.20;99.90;;;;;;6207366;23;20016;-73
2022/09/27 07:07:57;;;;;;;4.68;1.13;;;10.30;99.90;;;;;;6208139;23;20020;-72
2022/09/27 07:10:24;;;;;;;5.63;1.00;;;10.30;99.90;;;;;;6178452;23;20024;-73
2022/09/27 07:12:51;;;;;;;2.58;0.90;;;10.40;99.90;;;;;;6206939;23;20330;-72
2022/09/27 07:15:22;;;;;;;6.15;1.25;;;10.50;99.90;;;;;;6205118;23;20215;-71
2022/09/27 07:17:58;;;;;;;5.88;1.23;;;10.40;99.90;;;;;;6208184;23;20016;-72
2022/09/27 07:20:30;;;;;;;9.30;1.13;;;10.40;99.90;;;;;;6204419;23;20021;-71
2022/09/27 07:22:56;;;;;;;4.13;0.82;;;10.40;99.90;;;;;;6179807;23;20012;-74
2022/09/27 07:25:22;;;;;;;6.38;1.00;;;10.40;99.90;;;;;;6179254;23;20021;-73
2022/09/27 07:27:48;;;;;;;5.18;0.98;;;10.40;99.90;;;;;;6207820;23;20020;-71
2022/09/27 07:30:15;;;;;;;4.00;1.17;;;10.40;99.90;;;;;;6204597;23;20452;-72
2022/09/27 07:32:41;;;;;;;4.75;0.88;;;10.50;99.90;;;;;;6184820;23;20071;-71
2022/09/27 07:35:08;;;;;;;3.30;1.02;;;10.60;99.90;;;;;;6184376;23;20020;-71
2022/09/27 07:37:35;;;;;;;4.60;0.90;;;10.70;99.90;;;;;;6210967;23;20409;-71
2022/09/27 07:40:01;;;;;;;4.07;1.33;;;10.70;99.90;;;;;;6210798;23;20012;-72
2022/09/27 07:42:28;;;;;;;3.72;0.70;;;10.70;99.90;;;;;;6183987;23;20449;-74
2022/09/27 07:44:56;;;;;;;2.08;0.63;;;10.90;99.90;;;;;;6181804;23;20017;-71
2022/09/27 07:47:23;;;;;;;3.72;0.93;;;10.80;99.90;;;;;;6209472;23;20040;-71
2022/09/27 07:49:50;;;;;;;4.32;0.85;;;10.90;99.90;;;;;;6211294;23;20087;-71
2022/09/27 07:52:16;;;;;;;13.73;1.48;;;11.00;99.90;;;;;;6208990;23;20020;-72
2022/09/27 07:54:43;;;;;;;3.90;0.95;;;11.10;99.90;;;;;;6210663;23;20017;-80
2022/09/27 07:57:09;;;;;;;4.88;0.85;;;11.20;99.90;;;;;;6183894;23;20475;-71
2022/09/27 07:59:35;;;;;;;4.30;0.77;;;11.20;99.90;;;;;;6209927;23;20016;-71
2022/09/27 08:02:01;;;;;;;6.05;0.80;;;11.30;99.90;;;;;;6205768;23;20078;-71
2022/09/27 08:04:26;;;;;;;6.40;1.13;;;11.40;99.90;;;;;;6208048;23;20017;-68
2022/09/27 08:06:53;;;;;;;5.43;1.38;;;11.50;99.90;;;;;;6185704;23;20391;-68
2022/09/27 08:09:18;;;;;;;4.53;0.60;;;11.60;99.90;;;;;;6210847;23;20017;-68
2022/09/27 08:11:44;;;;;;;4.57;0.90;;;11.60;99.90;;;;;;6209885;23;20115;-69
2022/09/27 08:14:10;;;;;;;5.60;1.15;;;11.60;99.90;;;;;;6182746;23;20012;-69
2022/09/27 08:16:36;;;;;;;4.63;1.45;;;11.50;99.90;;;;;;6209551;23;20012;-68
2022/09/27 08:19:02;;;;;;;3.20;0.80;;;11.50;99.90;;;;;;6210128;23;20044;-68
2022/09/27 08:21:29;;;;;;;7.63;0.98;;;11.50;99.90;;;;;;6211526;23;20020;-69
2022/09/27 08:23:55;;;;;;;5.93;0.85;;;11.50;99.90;;;;;;6211764;23;20022;-68
2022/09/27 08:26:21;;;;;;;7.20;1.73;;;11.50;99.90;;;;;;6209271;23;20067;-68
2022/09/27 08:28:48;;;;;;;5.55;0.90;;;11.50;99.90;;;;;;6211332;23;20330;-69
2022/09/27 08:31:13;;;;;;;2.85;0.68;;;11.60;99.90;;;;;;6207601;23;20428;-68
2022/09/27 08:33:39;;;;;;;6.90;1.05;;;11.60;99.90;;;;;;6183669;23;20020;-68
2022/09/27 08:36:11;;;;;;;4.88;1.08;;;11.50;99.90;;;;;;6183597;23;20020;-68
2022/09/27 08:38:36;;;;;;;10.25;1.25;;;11.60;99.90;;;;;;6184989;23;20021;-69
2022/09/27 08:41:28;;;;;;;4.05;0.80;;;11.60;99.90;;;;;;6210168;23;20086;-69
2022/09/27 08:44:12;;;;;;;7.00;1.23;;;11.70;99.90;;;;;;6190460;23;20016;-69
2022/09/27 08:46:47;;;;;;;13.52;1.10;;;11.60;99.90;;;;;;6180041;23;20458;-69
2022/09/27 08:49:31;;;;;;;3.28;0.65;;;11.70;99.90;;;;;;6181612;23;20027;-68
2022/09/27 08:51:58;;;;;;;9.07;0.95;;;11.60;99.90;;;;;;6182660;23;20017;-69
2022/09/27 08:54:28;;;;;;;3.33;0.73;;;11.50;99.90;;;;;;6207563;23;20096;-69
2022/09/27 08:57:01;;;;;;;5.00;0.80;;;11.40;99.90;;;;;;6209621;23;20083;-69
2022/09/27 08:59:38;;;;;;;3.70;0.80;;;11.40;99.90;;;;;;6182345;23;20020;-69
2022/09/27 09:02:10;;;;;;;2.95;0.70;;;11.40;99.90;;;;;;6205958;23;20047;-68
2022/09/27 09:04:39;;;;;;;3.58;0.80;;;11.40;99.90;;;;;;6182554;23;20020;-69
2022/09/27 09:07:17;;;;;;;4.90;0.90;;;11.40;99.90;;;;;;6181346;23;20039;-68
2022/09/27 09:12:45;;;;;;;2.40;0.68;;;11.40;99.90;;;;;;6179860;23;20078;-69
2022/09/27 09:13:47;;;;;;;2.25;0.50;;;11.50;99.90;;;;;;6179596;23;20021;-69
2022/09/27 09:16:15;;;;;;;1.48;0.43;;;11.50;99.90;;;;;;6149003;23;20024;-69
2022/09/27 09:18:47;;;;;;;2.88;0.65;;;11.60;99.90;;;;;;6182762;23;20071;-69
2022/09/27 09:21:22;;;;;;;2.47;0.80;;;11.70;99.90;;;;;;6206938;23;20472;-69
2022/09/27 09:24:07;;;;;;;5.43;0.70;;;11.80;99.90;;;;;;6207476;23;20025;-69
2022/09/27 09:26:53;;;;;;;2.33;0.55;;;11.90;99.90;;;;;;6208142;23;20035;-68
2022/09/27 09:29:32;;;;;;;5.13;0.88;;;12.00;99.90;;;;;;6207549;23;20028;-69
2022/09/27 09:32:35;;;;;;;1.08;0.40;;;12.10;99.90;;;;;;6179817;23;20020;-68
2022/09/27 09:35:12;;;;;;;1.90;0.65;;;12.20;99.90;;;;;;6204021;23;20325;-69
2022/09/27 09:37:44;;;;;;;3.38;0.90;;;12.40;99.90;;;;;;6204598;23;20094;-68
2022/09/27 09:40:25;;;;;;;9.87;1.43;;;12.40;99.90;;;;;;6202027;23;20021;-70
2022/09/27 09:43:10;;;;;;;3.95;1.02;;;12.40;99.90;;;;;;6206755;23;20016;-72
2022/09/27 09:45:42;;;;;;;4.18;0.93;;;12.20;99.90;;;;;;6178211;23;20088;-68
2022/09/27 09:48:33;;;;;;;6.28;1.17;;;12.00;99.90;;;;;;6180591;23;20384;-70
2022/09/27 09:51:07;;;;;;;5.82;0.88;;;11.70;99.90;;;;;;6179348;23;20087;-70
2022/09/27 09:53:46;;;;;;;5.93;0.82;;;11.40;99.90;;;;;;6209436;23;20024;-70
2022/09/27 09:56:23;;;;;;;8.80;2.22;;;11.20;99.90;;;;;;6207491;23;20108;-70
2022/09/27 09:59:02;;;;;;;4.95;0.80;;;11.10;99.90;;;;;;6208840;23;20088;-70
2022/09/27 10:01:40;;;;;;;9.90;1.02;;;11.00;99.90;;;;;;6186556;23;20029;-69
2022/09/27 10:04:09;;;;;;;3.42;0.80;;;11.00;99.90;;;;;;6189792;23;20019;-69
2022/09/27 10:06:35;;;;;;;5.93;1.10;;;11.00;99.90;;;;;;6181739;23;20084;-70
2022/09/27 10:09:01;;;;;;;5.80;0.75;;;11.00;99.90;;;;;;6181999;23;20048;-71
2022/09/27 10:11:42;;;;;;;7.60;1.20;;;11.20;99.90;;;;;;6180986;23;20023;-69
2022/09/27 10:14:17;;;;;;;4.82;0.88;;;11.40;99.90;;;;;;6181710;23;20436;-70
2022/09/27 10:16:47;;;;;;;4.10;1.25;;;11.40;99.90;;;;;;6207315;23;20520;-69
2022/09/27 10:19:17;;;;;;;4.40;0.93;;;11.70;99.90;;;;;;6206693;23;20352;-69
2022/09/27 10:21:45;;;;;;;5.68;1.27;;;11.80;99.90;;;;;;6182887;23;20020;-68
2022/09/27 10:24:13;;;;;;;4.90;0.95;;;12.00;99.90;;;;;;6208424;23;20008;-68
2022/09/27 10:26:42;;;;;;;4.13;1.08;;;12.10;99.90;;;;;;6207767;23;20017;-69
2022/09/27 10:29:27;;;;;;;6.50;1.92;;;12.30;99.90;;;;;;6180705;23;20019;-69
2022/09/27 10:31:53;;;;;;;4.05;0.70;;;12.40;99.90;;;;;;6181616;23;20324;-69
2022/09/27 10:34:40;;;;;;;5.47;0.90;;;12.50;99.90;;;;;;6181423;23;20647;-69
2022/09/27 10:37:11;;;;;;;4.25;0.60;;;12.50;99.90;;;;;;6208058;23;20075;-69
2022/09/27 10:39:40;;;;;;;4.28;0.70;;;12.60;99.90;;;;;;6208456;23;20028;-71
2022/09/27 10:42:35;;;;;;;5.72;0.93;;;12.80;99.90;;;;;;6208145;23;20116;-69
2022/09/27 10:45:27;;;;;;;7.88;1.08;;;12.90;99.90;;;;;;6181322;23;20135;-69
2022/09/27 10:47:53;;;;;;;3.75;0.57;;;13.00;99.90;;;;;;6206883;23;20009;-72
2022/09/27 10:50:31;;;;;;;2.53;0.73;;;13.00;99.90;;;;;;6181127;23;20040;-71
2022/09/27 10:53:19;;;;;;;2.92;1.15;;;12.90;99.90;;;;;;6182560;23;20023;-73
2022/09/27 10:55:50;;;;;;;2.83;0.80;;;12.90;99.90;;;;;;6182264;23;20017;-73
2022/09/27 10:58:30;;;;;;;4.28;0.60;;;12.90;99.90;;;;;;6206392;23;20017;-73
2022/09/27 11:01:02;;;;;;;3.83;0.60;;;12.90;99.90;;;;;;6207221;23;20016;-73
2022/09/27 11:03:30;;;;;;;2.80;0.70;;;12.90;99.90;;;;;;6180897;23;20042;-74
2022/09/27 11:05:58;;;;;;;1.52;0.77;;;12.90;99.90;;;;;;6181761;23;20040;-74
2022/09/27 11:08:33;;;;;;;5.80;0.80;;;13.00;99.90;;;;;;6207127;23;20191;-73
2022/09/27 11:11:15;;;;;;;4.18;1.05;;;13.10;99.90;;;;;;6181602;23;20043;-72
2022/09/27 11:13:56;;;;;;;4.95;0.80;;;13.10;99.90;;;;;;6206122;23;20016;-72
2022/09/27 11:16:36;;;;;;;4.03;0.80;;;13.20;99.90;;;;;;6205816;23;20087;-72
2022/09/27 11:19:41;;;;;;;2.75;0.63;;;13.10;99.90;;;;;;6179284;23;20020;-74
2022/09/27 11:22:15;;;;;;;3.67;0.65;;;13.00;99.90;;;;;;6205203;23;20021;-74
2022/09/27 11:24:56;;;;;;;3.80;0.70;;;12.90;99.90;;;;;;6207651;23;20079;-74
2022/09/27 11:27:36;;;;;;;2.15;0.70;;;12.70;99.90;;;;;;6207937;23;20032;-74
2022/09/27 11:30:08;;;;;;;1.98;0.68;;;12.60;99.90;;;;;;6205025;23;20091;-72
2022/09/27 11:32:56;;;;;;;2.50;1.02;;;12.50;99.90;;;;;;6208810;23;20042;-74
2022/09/27 11:35:25;;;;;;;4.80;0.52;;;12.60;99.90;;;;;;6179670;23;20029;-75
2022/09/27 11:38:16;;;;;;;2.38;0.70;;;12.60;99.90;;;;;;6181572;23;20094;-75
2022/09/27 11:41:25;;;;;;;2.20;0.80;;;12.60;99.90;;;;;;6207214;23;20025;-74
2022/09/27 11:44:25;;;;;;;3.10;0.65;;;12.80;99.90;;;;;;6198322;23;20098;-75
2022/09/27 11:47:12;;;;;;;2.45;0.60;;;13.10;99.90;;;;;;6153262;23;20027;-75
2022/09/27 11:50:28;;;;;;;5.13;0.73;;;13.30;99.90;;;;;;6178912;23;20044;-75
2022/09/27 11:53:09;;;;;;;4.45;0.80;;;13.50;99.90;;;;;;6032906;23;20049;-75
2022/09/27 11:56:09;;;;;;;4.82;0.70;;;13.40;99.90;;;;;;6032512;23;20027;-74
2022/09/27 11:58:55;;;;;;;2.80;0.70;;;13.50;99.90;;;;;;6187305;23;20465;-75
2022/09/27 12:01:39;;;;;;;3.38;0.70;;;13.60;99.90;;;;;;6104111;23;20032;-75
2022/09/27 12:04:43;;;;;;;3.80;0.95;;;13.70;99.90;;;;;;6206638;23;20087;-75
2022/09/27 12:07:49;;;;;;;3.88;0.85;;;13.80;99.90;;;;;;6206629;23;20338;-75
2022/09/27 12:10:17;;;;;;;2.17;0.75;;;13.90;99.90;;;;;;6204839;23;20043;-75
2022/09/27 12:12:49;;;;;;;3.65;0.80;;;13.80;99.90;;;;;;6180279;23;20100;-75
2022/09/27 12:15:22;;;;;;;5.55;1.20;;;13.70;99.90;;;;;;6204977;23;20298;-74
2022/09/27 12:17:54;;;;;;;5.57;1.23;;;13.60;99.90;;;;;;6177737;23;20324;-73
2022/09/27 12:20:26;;;;;;;4.70;0.68;;;13.40;99.90;;;;;;6208398;23;20025;-77
2022/09/27 12:23:02;;;;;;;0.95;0.38;;;13.30;99.90;;;;;;6182454;23;20027;-78
2022/09/27 12:25:35;;;;;;;1.73;0.65;;;13.10;99.90;;;;;;6180015;23;20416;-79
2022/09/27 12:28:35;;;;;;;2.03;0.40;;;13.10;99.90;;;;;;6181170;23;20249;-78
2022/09/27 12:31:14;;;;;;;3.08;0.70;;;13.10;99.90;;;;;;6172444;23;20020;-76
2022/09/27 12:34:01;;;;;;;3.63;0.50;;;13.20;99.90;;;;;;6209573;23;20022;-78
2022/09/27 12:36:34;;;;;;;3.55;0.77;;;13.20;99.90;;;;;;6133482;23;20040;-77
2022/09/27 12:39:03;;;;;;;;;;;13.10;99.90;;;;;;6209462;23;20074;-77
2022/09/27 12:41:33;;;;;;;4.75;0.85;;;12.90;99.90;;;;;;6207933;23;19966;-77
2022/09/27 12:43:59;;;;;;;2.35;0.60;;;12.70;99.90;;;;;;6182278;23;20039;-77
2022/09/27 12:46:52;;;;;;;1.45;0.50;;;12.40;99.90;;;;;;6179263;23;20348;-75
2022/09/27 12:49:53;;;;;;;3.60;1.48;;;12.10;99.90;;;;;;6209347;23;20361;-77
2022/09/27 12:52:24;;;;;;;2.08;0.68;;;11.90;99.90;;;;;;6152014;23;20455;-77
2022/09/27 12:55:02;;;;;;;3.25;0.75;;;11.70;99.90;;;;;;6208179;23;20016;-76
2022/09/27 12:57:30;;;;;;;2.88;0.80;;;11.60;99.90;;;;;;6209369;23;20028;-77
2022/09/27 13:00:19;;;;;;;3.35;0.80;;;11.50;99.90;;;;;;6208308;23;20024;-77
2022/09/27 13:03:04;;;;;;;5.65;0.88;;;11.40;99.90;;;;;;6183040;23;20016;-78
2022/09/27 13:05:54;;;;;;;2.55;0.63;;;11.50;99.90;;;;;;6182324;23;20353;-77
2022/09/27 13:08:49;;;;;;;5.55;1.48;;;11.50;99.90;;;;;;6177946;23;20016;-78
2022/09/27 13:11:28;;;;;;;3.15;0.70;;;11.60;99.90;;;;;;6181244;23;20029;-74
2022/09/27 13:13:57;;;;;;;3.45;0.70;;;11.60;99.90;;;;;;6209138;23;20016;-73
2022/09/27 13:16:24;;;;;;;7.53;1.33;;;11.70;99.90;;;;;;6206804;23;20016;-73
2022/09/27 13:18:55;;;;;;;4.90;1.10;;;11.80;99.90;;;;;;6182814;23;20325;-72
2022/09/27 13:21:48;;;;;;;6.82;0.80;;;12.00;99.90;;;;;;6203700;23;20025;-76
2022/09/27 13:24:42;;;;;;;4.38;0.80;;;12.10;99.90;;;;;;6181359;23;20087;-75
2022/09/27 13:27:28;;;;;;;6.07;0.82;;;12.20;99.90;;;;;;6181218;23;20025;-75